Aviation Digital Data Service (ADDS)

Output produced by METARs form (0718 UTC 20 October 2018)
found at http://www.aviationweather.gov/metar/data/
 
KUUU 200653Z AUTO 22009G16KT 190V260 10SM CLR 15/10 A2983 RMK AO2 RAB0555E17 SLP099 P0000 T01500100
KOQU 200250Z 25014KT 15SM BKN200 14/06 A2995 RMK LAST
KSFZ 200656Z AUTO 23008KT 190V260 10SM SCT120 13/08 A2980 RMK AO2 SLP039 T01280078
KPVD 200651Z 23013G18KT 10SM FEW120 14/09 A2982 RMK AO2 SLP099 T01440089
KPVD 200534Z 2006/2106 22009KT P6SM BKN130 
     FM201200 22011G22KT P6SM BKN025 
     FM201400 23011G22KT P6SM BKN025 
     FM201900 26010G20KT P6SM BKN040 
     FM202200 27007KT P6SM BKN050
       
KWST 200653Z AUTO 23011G21KT 10SM BKN110 16/09 A2983 RMK AO2 SLP101 T01610094 $